Time;durP1;ratioP1;P1;durP2;ratioP2;P2;SDS_P1;SDS_P2;PMS_P1;PMS_P2;Temp;Humidity;BMP_temperature;BMP_pressure;BME280_temperature;BME280_humidity;BME280_pressure;Samples;Min_cycle;Max_cycle;Signal;HPM_P1;HPM_P2
2023/01/22 00:01:33;;;;;;;412.42;111.17;;;;;;;0.40;64.89;102263.30;1838802;77;21087;-58
2023/01/22 00:04:02;;;;;;;345.75;94.92;;;;;;;0.38;64.96;102261.53;1850544;77;21568;-59
2023/01/22 00:06:31;;;;;;;188.87;55.67;;;;;;;0.35;64.96;102261.47;1851337;77;21044;-59
2023/01/22 00:09:02;;;;;;;179.32;54.10;;;;;;;0.34;64.97;102267.47;1851470;77;21189;-58
2023/01/22 00:11:30;;;;;;;145.05;39.25;;;;;;;0.33;64.93;102267.42;1851980;76;21204;-57
2023/01/22 00:13:59;;;;;;;85.62;28.15;;;;;;;0.30;64.99;102268.23;1851455;77;21145;-58
2023/01/22 00:16:27;;;;;;;90.22;28.27;;;;;;;0.30;64.98;102268.23;1851509;77;21459;-58
2023/01/22 00:18:57;;;;;;;81.67;30.40;;;;;;;0.26;65.04;102268.98;1851378;77;21052;-61
2023/01/22 00:21:26;;;;;;;109.80;31.17;;;;;;;0.24;65.11;102265.48;1845559;76;21558;-65
2023/01/22 00:23:55;;;;;;;163.68;49.85;;;;;;;0.21;65.15;102268.41;1834993;76;21485;-60
2023/01/22 00:26:23;;;;;;;216.25;64.62;;;;;;;0.19;65.27;102268.35;1838610;76;21114;-60
2023/01/22 00:28:53;;;;;;;205.20;62.48;;;;;;;0.15;65.31;102263.92;1849697;77;21052;-60
2023/01/22 00:31:22;;;;;;;123.95;41.80;;;;;;;0.15;65.34;102267.81;1850301;77;21041;-60
2023/01/22 00:33:51;;;;;;;109.87;34.35;;;;;;;0.14;65.33;102269.50;1851660;77;21055;-60
2023/01/22 00:36:21;;;;;;;110.72;34.73;;;;;;;0.12;65.36;102265.99;1850229;77;21171;-60
2023/01/22 00:38:51;;;;;;;63.60;23.00;;;;;;;0.11;65.40;102271.13;1841332;77;21155;-59
2023/01/22 00:41:20;;;;;;;42.60;14.28;;;;;;;0.09;65.39;102276.68;1838453;78;21576;-61
2023/01/22 00:43:49;;;;;;;39.95;13.25;;;;;;;0.05;65.43;102277.44;1839218;78;21091;-61
2023/01/22 00:46:18;;;;;;;44.40;14.85;;;;;;;0.03;65.40;102281.27;1839953;78;21068;-61
2023/01/22 00:48:48;;;;;;;38.40;15.30;;;;;;;-0.01;65.37;102276.41;1839944;78;21109;-61
2023/01/22 00:51:17;;;;;;;47.23;20.35;;;;;;;-0.03;65.34;102275.92;1840034;78;21134;-60
2023/01/22 00:53:46;;;;;;;77.35;27.82;;;;;;;-0.06;65.43;102277.98;1839292;77;21048;-58
2023/01/22 00:56:15;;;;;;;75.57;28.40;;;;;;;-0.06;65.52;102279.28;1828850;78;21050;-58
2023/01/22 00:58:44;;;;;;;93.70;30.60;;;;;;;-0.07;65.44;102269.77;1828759;78;21576;-60
2023/01/22 01:01:14;;;;;;;81.55;30.70;;;;;;;-0.07;65.37;102271.49;1828800;78;21161;-61
2023/01/22 01:03:43;;;;;;;78.33;26.62;;;;;;;-0.09;65.39;102270.15;1828905;78;21120;-61
2023/01/22 01:06:15;;;;;;;61.35;20.97;;;;;;;-0.10;65.49;102277.44;1828818;78;21066;-61
2023/01/22 01:08:44;;;;;;;48.05;19.05;;;;;;;-0.09;65.57;102279.22;1828844;78;21058;-60
2023/01/22 01:11:24;;;;;;;59.35;18.98;;;;;;;-0.10;65.62;102273.98;1828749;78;21165;-60
2023/01/22 01:13:54;;;;;;;60.48;22.35;;;;;;;-0.13;65.51;102272.20;1828833;78;21065;-61
2023/01/22 01:16:31;;;;;;;70.50;26.33;;;;;;;-0.17;65.51;102270.32;1829000;78;21131;-61
2023/01/22 01:19:05;;;;;;;45.88;18.95;;;;;;;-0.21;66.18;102268.05;1826207;77;21103;-56
2023/01/22 01:21:34;;;;;;;50.17;17.98;;;;;;;-0.22;66.54;102271.50;1839876;78;21064;-58
2023/01/22 01:24:04;;;;;;;19.15;9.68;;;;;;;-0.25;66.55;102269.23;1840138;78;21072;-56
2023/01/22 01:26:34;;;;;;;43.35;15.98;;;;;;;-0.27;66.31;102264.42;1831294;77;21060;-56
2023/01/22 01:29:05;;;;;;;48.13;16.40;;;;;;;-0.30;66.25;102263.03;1820052;76;21081;-57
2023/01/22 01:31:33;;;;;;;45.55;15.13;;;;;;;-0.30;66.12;102269.50;1832165;78;21253;-59
2023/01/22 01:34:02;;;;;;;49.93;17.77;;;;;;;-0.32;66.01;102271.17;1826901;78;21068;-59
2023/01/22 01:36:31;;;;;;;59.63;21.48;;;;;;;-0.35;66.15;102269.77;1836125;78;21159;-62
2023/01/22 01:39:00;;;;;;;42.70;16.32;;;;;;;-0.40;66.53;102275.69;1818675;77;21137;-62
2023/01/22 01:41:28;;;;;;;46.42;17.67;;;;;;;-0.45;67.04;102273.80;1811434;79;21132;-62
2023/01/22 01:44:12;;;;;;;47.45;15.48;;;;;;;-0.48;67.40;102273.69;1787090;80;21512;-53
2023/01/22 01:46:43;;;;;;;27.77;13.13;;;;;;;-0.50;67.54;102268.49;1759430;81;21137;-50
2023/01/22 01:49:19;;;;;;;30.82;12.18;;;;;;;-0.54;67.45;102270.50;1809647;79;21100;-57
2023/01/22 01:51:49;;;;;;;38.83;14.73;;;;;;;-0.61;67.72;102268.55;1809742;79;21146;-54
2023/01/22 01:54:18;;;;;;;42.00;16.67;;;;;;;-0.68;68.07;102270.47;1809792;79;21519;-60
2023/01/22 01:56:50;;;;;;;10.85;6.72;;;;;;;-0.74;68.57;102271.58;1781719;79;21527;-61
2023/01/22 01:59:21;;;;;;;41.35;13.72;;;;;;;-0.76;68.50;102262.90;1783756;80;21064;-58
2023/01/22 02:01:53;;;;;;;40.20;13.08;;;;;;;-0.75;68.23;102271.13;1791483;79;21096;-60
2023/01/22 02:04:24;;;;;;;32.45;15.43;;;;;;;-0.74;68.04;102268.57;1791443;80;21116;-60
2023/01/22 02:06:54;;;;;;;33.63;14.18;;;;;;;-0.72;67.93;102273.80;1791344;79;21150;-58
2023/01/22 02:09:23;;;;;;;39.10;13.68;;;;;;;-0.71;67.99;102276.44;1791351;80;21060;-58
2023/01/22 02:11:53;;;;;;;33.10;13.53;;;;;;;-0.74;67.98;102281.92;1827409;77;21043;-58
2023/01/22 02:14:25;;;;;;;40.73;15.88;;;;;;;-0.78;68.56;102272.77;1794501;80;21532;-61
2023/01/22 02:17:14;;;;;;;29.02;9.90;;;;;;;-0.81;69.18;102263.64;1800912;79;21222;-62
2023/01/22 02:19:43;;;;;;;35.45;13.48;;;;;;;-0.85;69.62;102272.13;1794458;80;21061;-62
2023/01/22 02:22:16;;;;;;;45.78;14.78;;;;;;;-0.83;69.55;102269.18;1794399;79;21022;-58
2023/01/22 02:24:45;;;;;;;29.32;11.55;;;;;;;-0.84;69.58;102277.75;1800576;79;21604;-57
2023/01/22 02:27:14;;;;;;;33.70;13.98;;;;;;;-0.84;70.08;102275.16;1828920;77;21162;-61
2023/01/22 02:29:42;;;;;;;42.50;16.00;;;;;;;-0.86;70.07;102275.53;1817772;78;21586;-62
2023/01/22 02:32:12;;;;;;;24.87;10.53;;;;;;;-0.87;70.37;102282.81;1794523;80;21073;-60
2023/01/22 02:34:41;;;;;;;42.05;13.80;;;;;;;-0.83;70.03;102276.03;1816387;79;21572;-59
2023/01/22 02:37:11;;;;;;;32.63;12.53;;;;;;;-0.82;69.88;102279.97;1815112;79;21595;-59
2023/01/22 02:39:39;;;;;;;29.27;12.55;;;;;;;-0.79;69.85;102280.08;1808788;77;21077;-59
2023/01/22 02:42:09;;;;;;;31.23;13.60;;;;;;;-0.78;69.69;102276.64;1831417;77;21112;-59
2023/01/22 02:44:38;;;;;;;26.37;10.90;;;;;;;-0.76;69.72;102276.70;1833868;78;21547;-59
2023/01/22 02:47:07;;;;;;;32.28;11.68;;;;;;;-0.76;69.79;102282.30;1838542;78;21112;-59
2023/01/22 02:49:35;;;;;;;29.32;13.15;;;;;;;-0.76;69.51;102282.30;1838594;78;21155;-59
2023/01/22 02:52:04;;;;;;;33.78;9.35;;;;;;;-0.76;69.43;102284.88;1838515;78;21186;-59
2023/01/22 02:54:33;;;;;;;38.95;15.63;;;;;;;-0.75;69.35;102282.77;1838548;78;21065;-59
2023/01/22 02:57:01;;;;;;;36.13;11.97;;;;;;;-0.76;69.50;102283.59;1842623;78;21120;-59
2023/01/22 02:59:30;;;;;;;28.73;12.85;;;;;;;-0.76;69.48;102282.30;1842860;76;21321;-59
2023/01/22 03:01:59;;;;;;;27.02;10.82;;;;;;;-0.75;69.26;102282.34;1843106;78;21034;-59
2023/01/22 03:04:28;;;;;;;18.30;11.60;;;;;;;-0.76;69.54;102274.11;1842975;78;21054;-59
2023/01/22 03:06:56;;;;;;;27.07;12.07;;;;;;;-0.74;69.51;102278.05;1843002;78;21104;-59
2023/01/22 03:09:27;;;;;;;28.80;10.60;;;;;;;-0.78;69.83;102275.35;1842864;78;21192;-59
2023/01/22 03:11:57;;;;;;;34.88;14.55;;;;;;;-0.81;70.06;102280.45;1842876;78;21093;-58
2023/01/22 03:22:50;;;;;;;43.92;18.77;;;;;;;-0.91;69.55;102280.96;1808298;79;21100;-54
2023/01/22 03:25:20;;;;;;;28.75;14.45;;;;;;;-0.90;69.49;102282.73;1808327;79;21097;-56
2023/01/22 03:28:15;;;;;;;44.33;20.17;;;;;;;-0.88;69.36;102285.38;1808234;79;21560;-57
2023/01/22 03:30:39;;;;;;;41.80;20.60;;;;;;;-0.87;69.23;102285.40;1823673;78;21146;-58
2023/01/22 03:33:09;;;;;;;23.00;11.25;;;;;;;-0.87;69.21;102282.81;1837938;78;21658;-58
2023/01/22 03:35:38;;;;;;;43.05;16.87;;;;;;;-0.88;69.17;102290.55;1842564;78;21499;-57
2023/01/22 03:38:15;;;;;;;36.83;14.65;;;;;;;-0.90;69.05;102286.61;1838688;78;21105;-57
2023/01/22 03:40:43;;;;;;;47.55;16.70;;;;;;;-0.91;69.01;102293.89;1838799;77;21108;-57
2023/01/22 03:43:12;;;;;;;37.00;14.43;;;;;;;-0.91;68.96;102292.59;1840112;77;21160;-59
2023/01/22 03:45:41;;;;;;;31.50;12.98;;;;;;;-0.91;68.90;102287.84;1835170;77;21080;-59
2023/01/22 03:48:11;;;;;;;44.33;13.35;;;;;;;-0.90;68.77;102289.20;1808424;78;21203;-59
2023/01/22 03:50:41;;;;;;;36.25;13.78;;;;;;;-0.91;68.72;102290.44;1838002;77;21660;-51
2023/01/22 03:53:09;;;;;;;41.02;16.67;;;;;;;-0.92;68.67;102286.98;1839666;78;21126;-52
2023/01/22 03:55:38;;;;;;;42.53;17.80;;;;;;;-0.91;68.73;102290.02;1838383;77;21060;-57
2023/01/22 03:58:08;;;;;;;42.70;18.12;;;;;;;-0.93;68.86;102291.67;1840222;77;21619;-57
2023/01/22 04:00:37;;;;;;;34.70;13.55;;;;;;;-1.02;69.49;102290.95;1840460;78;21077;-49
2023/01/22 04:03:06;;;;;;;35.05;13.80;;;;;;;-1.03;69.65;102288.34;1840869;77;21147;-54
2023/01/22 04:05:35;;;;;;;28.62;11.50;;;;;;;-1.03;69.51;102290.50;1840754;77;21144;-60
2023/01/22 04:08:04;;;;;;;29.67;13.70;;;;;;;-1.01;69.53;102294.44;1840663;77;21042;-63
2023/01/22 04:10:35;;;;;;;34.30;15.15;;;;;;;-1.03;69.46;102288.34;1838137;77;21171;-62
2023/01/22 04:13:04;;;;;;;44.25;15.85;;;;;;;-1.03;69.32;102285.75;1839708;78;21630;-62
2023/01/22 04:15:33;;;;;;;45.28;19.32;;;;;;;-1.04;69.35;102291.73;1838604;77;21073;-62
2023/01/22 04:18:03;;;;;;;58.75;21.80;;;;;;;-1.06;69.28;102290.81;1837343;78;21105;-62
2023/01/22 04:20:43;;;;;;;31.40;12.68;;;;;;;-1.08;69.39;102295.92;1840205;77;21110;-63
2023/01/22 04:23:13;;;;;;;36.70;16.15;;;;;;;-1.08;69.57;102288.59;1840482;77;21188;-62
2023/01/22 04:25:42;;;;;;;38.38;16.05;;;;;;;-1.10;69.36;102290.25;1840444;78;21083;-62
2023/01/22 04:28:11;;;;;;;38.23;14.58;;;;;;;-1.11;69.28;102300.98;1840631;77;21485;-62
2023/01/22 04:30:41;;;;;;;44.50;15.85;;;;;;;-1.13;69.55;102302.63;1839956;77;21124;-62
2023/01/22 04:33:12;;;;;;;25.27;11.55;;;;;;;-1.15;69.43;102306.01;1835681;78;21867;-62
2023/01/22 04:35:42;;;;;;;33.53;12.07;;;;;;;-1.21;69.59;102296.34;1834831;77;21152;-63
2023/01/22 04:38:13;;;;;;;31.93;9.33;;;;;;;-1.23;69.43;102296.28;1824507;78;21139;-63
2023/01/22 04:40:42;;;;;;;43.85;11.03;;;;;;;-1.25;69.44;102299.65;1827987;77;21225;-63
2023/01/22 04:43:12;;;;;;;29.57;11.63;;;;;;;-1.32;69.66;102300.27;1809687;79;21779;-62
2023/01/22 04:45:40;;;;;;;37.00;13.38;;;;;;;-1.37;69.74;102306.12;1810660;79;21263;-64
2023/01/22 04:48:11;;;;;;;28.25;11.43;;;;;;;-1.39;69.93;102297.86;1810641;78;21057;-63
2023/01/22 04:50:41;;;;;;;25.25;10.72;;;;;;;-1.41;70.20;102302.97;1809885;79;21153;-64
2023/01/22 04:53:11;;;;;;;36.05;12.00;;;;;;;-1.41;70.34;102300.81;1808866;79;21191;-64
2023/01/22 04:55:41;;;;;;;26.77;10.60;;;;;;;-1.39;70.28;102296.15;1809811;78;21908;-63
2023/01/22 04:58:11;;;;;;;42.70;14.25;;;;;;;-1.36;70.07;102307.02;1813110;79;21090;-57
2023/01/22 05:00:40;;;;;;;32.63;14.00;;;;;;;-1.37;70.21;102313.00;1813643;79;21631;-61
2023/01/22 05:03:11;;;;;;;40.78;14.10;;;;;;;-1.36;70.12;102314.77;1814135;79;21051;-61
2023/01/22 05:05:41;;;;;;;41.48;13.13;;;;;;;-1.38;70.18;102316.43;1829297;77;21572;-60
2023/01/22 05:08:10;;;;;;;39.90;13.15;;;;;;;-1.41;70.23;102326.65;1851779;77;21495;-61
2023/01/22 05:10:39;;;;;;;24.15;10.68;;;;;;;-1.40;70.21;102324.55;1840351;77;21148;-61
2023/01/22 05:13:09;;;;;;;34.98;12.18;;;;;;;-1.39;70.27;102323.70;1840557;77;21131;-60
2023/01/22 05:15:39;;;;;;;21.60;10.53;;;;;;;-1.33;70.12;102328.20;1854388;76;21471;-60
2023/01/22 05:18:13;;;;;;;35.50;13.62;;;;;;;-1.28;70.02;102317.63;1830985;77;21115;-60
2023/01/22 05:20:42;;;;;;;32.95;13.53;;;;;;;-1.22;69.97;102325.58;1833708;77;21614;-60
2023/01/22 05:23:11;;;;;;;33.38;13.15;;;;;;;-1.17;69.86;102326.20;1840564;77;21598;-60
2023/01/22 05:25:40;;;;;;;26.60;12.45;;;;;;;-1.10;69.80;102327.73;1828736;77;21147;-62
2023/01/22 05:28:09;;;;;;;43.10;13.80;;;;;;;-1.05;69.74;102326.16;1850834;77;21141;-62
2023/01/22 05:30:42;;;;;;;34.88;14.68;;;;;;;-0.99;69.82;102332.85;1849655;77;21531;-63
2023/01/22 05:33:12;;;;;;;32.25;13.80;;;;;;;-0.89;69.76;102331.02;1802653;77;21105;-64
2023/01/22 05:35:42;;;;;;;25.45;12.45;;;;;;;-0.76;69.69;102332.31;1837141;77;21174;-64
2023/01/22 05:38:13;;;;;;;40.50;16.10;;;;;;;-0.61;69.60;102326.76;1844906;77;21466;-63
2023/01/22 05:40:42;;;;;;;46.65;13.08;;;;;;;-0.49;69.53;102325.88;1828374;77;21050;-62
2023/01/22 05:43:11;;;;;;;39.13;14.20;;;;;;;-0.37;69.58;102333.55;1830523;77;21078;-62
2023/01/22 05:45:44;;;;;;;38.58;15.32;;;;;;;-0.06;69.59;102338.84;1828027;78;21178;-61
2023/01/22 05:48:14;;;;;;;23.10;8.63;;;;;;;0.17;69.35;102328.31;1825569;77;21160;-61
2023/01/22 05:50:47;;;;;;;43.58;14.58;;;;;;;0.37;69.09;102329.76;1819730;77;21094;-56
2023/01/22 05:53:16;;;;;;;38.88;12.88;;;;;;;0.71;68.65;102334.58;1830423;77;21501;-63
2023/01/22 05:55:45;;;;;;;37.50;13.62;;;;;;;1.07;68.09;102341.59;1828725;77;21066;-63
2023/01/22 05:58:14;;;;;;;29.07;13.13;;;;;;;1.59;67.74;102335.50;1830383;77;21603;-60
2023/01/22 06:00:45;;;;;;;43.42;15.05;;;;;;;2.13;66.88;102335.41;1828500;77;21125;-59
2023/01/22 06:03:14;;;;;;;36.25;13.78;;;;;;;2.43;66.23;102335.58;1849993;77;21478;-58
2023/01/22 06:05:44;;;;;;;40.40;16.12;;;;;;;2.66;65.78;102342.13;1852507;77;21612;-59
2023/01/22 06:08:13;;;;;;;40.75;12.90;;;;;;;2.90;65.41;102335.63;1854017;77;21044;-58
2023/01/22 06:10:43;;;;;;;46.00;14.65;;;;;;;3.04;65.15;102335.47;1831093;77;21110;-59
2023/01/22 06:13:12;;;;;;;36.95;14.65;;;;;;;3.26;64.76;102347.52;1829057;77;21097;-59
2023/01/22 06:15:43;;;;;;;37.78;14.80;;;;;;;3.45;64.65;102330.06;1850406;77;21544;-63
2023/01/22 06:18:21;;;;;;;41.18;15.85;;;;;;;3.71;64.37;102344.33;1839724;77;21105;-63
2023/01/22 06:20:51;;;;;;;41.55;15.13;;;;;;;3.92;63.91;102347.69;1825800;78;21050;-63
2023/01/22 06:23:21;;;;;;;40.83;15.63;;;;;;;4.33;63.53;102346.06;1825809;78;21061;-64
2023/01/22 06:25:54;;;;;;;38.85;15.58;;;;;;;4.95;63.09;102343.28;1847987;77;21596;-64
2023/01/22 06:28:23;;;;;;;41.80;16.40;;;;;;;5.55;62.73;102341.20;1831387;77;21182;-64
2023/01/22 06:30:56;;;;;;;36.17;14.70;;;;;;;6.31;62.21;102337.76;1829960;77;21151;-58
2023/01/22 06:33:24;;;;;;;38.83;15.23;;;;;;;7.00;61.52;102347.55;1821190;77;21195;-63
2023/01/22 06:35:56;;;;;;;42.65;17.40;;;;;;;7.62;60.86;102336.20;1838436;77;21109;-61
2023/01/22 06:38:27;;;;;;;47.13;16.30;;;;;;;8.11;59.93;102338.73;1854260;77;21535;-62
2023/01/22 06:40:59;;;;;;;42.08;16.37;;;;;;;8.54;59.49;102341.66;1854092;76;21145;-62
2023/01/22 06:43:29;;;;;;;44.45;16.87;;;;;;;8.94;59.03;102345.34;1858581;76;21173;-61
2023/01/22 06:45:57;;;;;;;34.95;15.53;;;;;;;9.32;58.23;102360.42;1863757;77;21068;-57
2023/01/22 06:48:27;;;;;;;36.13;16.57;;;;;;;9.62;57.07;102361.45;1858846;76;21047;-58
2023/01/22 06:51:00;;;;;;;38.10;17.10;;;;;;;9.97;56.15;102355.42;1856478;77;21101;-58
2023/01/22 06:53:30;;;;;;;47.43;17.82;;;;;;;10.23;55.42;102354.67;1831319;77;21128;-64
2023/01/22 06:56:02;;;;;;;41.15;16.73;;;;;;;10.51;54.72;102350.87;1829136;77;21180;-63
2023/01/22 06:58:31;;;;;;;43.42;16.65;;;;;;;10.76;54.11;102343.52;1829017;78;21030;-60
2023/01/22 07:01:04;;;;;;;43.30;18.00;;;;;;;10.94;53.47;102348.97;1831793;77;21062;-60
2023/01/22 07:03:33;;;;;;;43.05;18.12;;;;;;;11.10;52.89;102350.48;1863979;76;21051;-60
2023/01/22 07:06:03;;;;;;;43.83;19.23;;;;;;;11.30;52.21;102340.05;1863768;77;21056;-60
2023/01/22 07:08:33;;;;;;;39.48;16.90;;;;;;;11.35;51.84;102335.58;1863784;76;21056;-62
2023/01/22 07:11:02;;;;;;;43.85;16.42;;;;;;;11.48;51.24;102338.42;1863922;77;21557;-64
2023/01/22 07:13:33;;;;;;;38.65;16.05;;;;;;;11.77;50.96;102343.64;1859937;77;21043;-63
2023/01/22 07:16:04;;;;;;;38.90;17.02;;;;;;;12.10;50.19;102346.58;1863760;77;21043;-63
2023/01/22 07:18:32;;;;;;;39.67;16.07;;;;;;;12.20;49.64;102341.52;1863880;77;21588;-57
2023/01/22 07:21:05;;;;;;;36.93;15.98;;;;;;;12.31;49.33;102344.80;1863790;77;21114;-57
2023/01/22 07:23:34;;;;;;;37.67;15.93;;;;;;;12.44;48.86;102344.55;1861450;76;21113;-57
2023/01/22 07:26:02;;;;;;;40.43;15.32;;;;;;;12.41;48.47;102356.03;1863639;77;21032;-57
2023/01/22 07:28:31;;;;;;;36.25;17.17;;;;;;;12.55;48.02;102350.02;1863756;77;21534;-58
2023/01/22 07:31:02;;;;;;;40.60;16.20;;;;;;;12.80;47.96;102351.23;1863795;77;21051;-57
2023/01/22 07:33:30;;;;;;;42.53;17.27;;;;;;;13.00;47.24;102351.65;1850777;77;21128;-58
2023/01/22 07:35:59;;;;;;;44.27;15.93;;;;;;;13.21;46.59;102352.06;1828816;78;21121;-58
2023/01/22 07:38:28;;;;;;;35.50;14.93;;;;;;;13.09;46.24;102354.08;1828849;78;21050;-58
2023/01/22 07:41:03;;;;;;;36.95;14.53;;;;;;;12.89;46.00;102358.96;1828920;78;21034;-65
2023/01/22 07:43:32;;;;;;;37.67;17.02;;;;;;;12.90;45.88;102362.03;1833507;77;21147;-64
2023/01/22 07:46:04;;;;;;;42.67;18.20;;;;;;;13.08;45.36;102356.32;1837294;78;21641;-64
2023/01/22 07:48:34;;;;;;;42.40;18.02;;;;;;;13.35;44.88;102357.89;1837405;78;21126;-64
2023/01/22 07:51:05;;;;;;;47.35;20.48;;;;;;;13.67;44.63;102360.20;1843632;76;21102;-64
2023/01/22 07:53:34;;;;;;;44.08;21.55;;;;;;;13.99;44.31;102357.13;1854916;77;21103;-58
2023/01/22 07:56:04;;;;;;;46.90;21.93;;;;;;;14.35;43.83;102368.91;1854743;77;21549;-64
2023/01/22 07:58:33;;;;;;;38.88;18.20;;;;;;;14.38;43.07;102367.52;1854815;77;21045;-64
2023/01/22 08:01:06;;;;;;;38.08;16.07;;;;;;;14.40;42.91;102374.95;1845721;76;21161;-60
2023/01/22 08:03:36;;;;;;;33.92;14.75;;;;;;;14.40;42.58;102373.16;1829046;76;21116;-62
2023/01/22 08:06:09;;;;;;;39.08;15.13;;;;;;;14.51;42.33;102366.69;1810355;78;21148;-58
2023/01/22 08:08:38;;;;;;;41.77;18.12;;;;;;;14.57;42.10;102356.83;1835964;78;22178;-60
2023/01/22 08:11:07;;;;;;;44.20;17.45;;;;;;;14.57;42.10;102356.83;1834949;78;21566;-58
2023/01/22 08:13:35;;;;;;;39.10;16.62;;;;;;;15.00;41.63;102366.56;1835092;78;21123;-57
2023/01/22 08:16:05;;;;;;;37.28;15.72;;;;;;;14.81;41.83;102361.83;1835011;78;21049;-56
2023/01/22 08:18:34;;;;;;;40.98;17.17;;;;;;;14.98;41.28;102373.70;1835118;78;21570;-58
2023/01/22 08:21:06;;;;;;;37.05;15.30;;;;;;;15.66;40.64;102360.39;1835573;77;21041;-59
2023/01/22 08:23:34;;;;;;;37.60;15.65;;;;;;;16.15;40.11;102358.66;1835020;78;21057;-58
2023/01/22 08:26:03;;;;;;;39.45;15.48;;;;;;;16.42;39.85;102362.55;1835603;78;21061;-59
2023/01/22 08:28:32;;;;;;;41.40;16.93;;;;;;;16.62;39.51;102363.56;1835656;78;21146;-62
2023/01/22 08:31:02;;;;;;;38.48;15.90;;;;;;;16.97;38.89;102364.42;1835980;78;21080;-58
2023/01/22 08:33:33;;;;;;;36.38;16.23;;;;;;;17.24;38.83;102362.88;1835827;78;21586;-60
2023/01/22 08:36:01;;;;;;;41.60;16.85;;;;;;;17.64;38.63;102358.55;1835914;78;21049;-61
2023/01/22 08:38:30;;;;;;;41.08;17.90;;;;;;;18.05;38.04;102347.89;1831148;78;21103;-59
2023/01/22 08:40:59;;;;;;;42.20;17.32;;;;;;;18.13;37.71;102345.77;1818732;78;21025;-59
2023/01/22 08:43:28;;;;;;;44.67;17.75;;;;;;;18.16;37.04;102346.55;1836869;78;21096;-59
2023/01/22 08:45:57;;;;;;;34.53;15.20;;;;;;;18.13;36.10;102342.23;1837292;78;21068;-59
2023/01/22 08:48:26;;;;;;;41.33;18.10;;;;;;;18.34;36.26;102333.70;1836222;78;21451;-60
2023/01/22 08:50:57;;;;;;;38.95;16.17;;;;;;;18.40;35.88;102332.55;1835851;78;21056;-58
2023/01/22 08:53:25;;;;;;;46.10;18.12;;;;;;;18.71;35.68;102338.64;1835811;77;21029;-61
2023/01/22 08:55:54;;;;;;;45.23;18.87;;;;;;;19.07;35.51;102333.80;1835762;78;21139;-64
2023/01/22 08:58:24;;;;;;;38.85;17.80;;;;;;;19.42;34.97;102331.16;1850540;76;21119;-62
2023/01/22 09:00:53;;;;;;;52.80;19.90;;;;;;;19.50;34.71;102328.12;1852027;77;21116;-57
2023/01/22 09:03:22;;;;;;;47.83;20.57;;;;;;;19.28;34.70;102324.72;1852113;77;21484;-61
2023/01/22 09:05:51;;;;;;;54.10;19.70;;;;;;;19.48;34.61;102318.84;1852001;77;21018;-61
2023/01/22 09:08:20;;;;;;;46.60;21.12;;;;;;;19.62;34.15;102313.65;1813682;77;21072;-60
2023/01/22 09:10:49;;;;;;;46.18;20.25;;;;;;;19.40;34.14;102315.23;1805770;79;21540;-60
2023/01/22 09:13:17;;;;;;;51.92;22.82;;;;;;;19.28;33.94;102311.36;1805674;79;21570;-61
2023/01/22 09:15:46;;;;;;;48.95;20.97;;;;;;;19.35;33.95;102313.71;1805572;79;21053;-61
2023/01/22 09:18:15;;;;;;;50.28;22.48;;;;;;;19.40;33.62;102305.00;1805562;79;21080;-61
2023/01/22 09:20:45;;;;;;;58.30;24.47;;;;;;;19.50;33.71;102308.08;1805487;79;21053;-61
2023/01/22 09:23:14;;;;;;;47.20;22.15;;;;;;;19.62;33.67;102303.41;1805560;79;21088;-61
2023/01/22 09:25:43;;;;;;;46.25;21.65;;;;;;;19.76;33.50;102300.91;1805769;79;21076;-61
2023/01/22 09:28:11;;;;;;;50.58;22.27;;;;;;;19.83;32.79;102298.79;1805530;79;21072;-61
2023/01/22 09:30:41;;;;;;;51.80;21.70;;;;;;;19.77;33.04;102297.77;1805586;79;21138;-60
2023/01/22 09:33:10;;;;;;;56.75;22.58;;;;;;;19.59;33.39;102302.26;1805522;79;21528;-60
2023/01/22 09:35:38;;;;;;;52.80;20.57;;;;;;;19.40;33.22;102296.98;1805571;79;21116;-61
2023/01/22 09:38:07;;;;;;;45.33;19.57;;;;;;;18.80;33.79;102306.17;1805599;79;21096;-61
2023/01/22 09:40:50;;;;;;;40.08;15.93;;;;;;;17.85;34.42;102303.47;1805553;79;21134;-60
2023/01/22 09:43:25;;;;;;;35.20;16.25;;;;;;;16.85;35.32;102299.73;1805067;79;21523;-60
2023/01/22 09:45:57;;;;;;;56.75;17.32;;;;;;;16.04;36.12;102292.23;1824140;78;21091;-60
2023/01/22 09:48:28;;;;;;;44.77;18.35;;;;;;;15.65;36.66;102296.25;1825719;78;21589;-60
2023/01/22 09:50:57;;;;;;;45.45;17.60;;;;;;;15.72;36.59;102289.80;1824947;78;21570;-60
2023/01/22 09:53:26;;;;;;;44.13;16.80;;;;;;;16.51;35.84;102290.89;1825690;78;21060;-59
2023/01/22 09:55:56;;;;;;;42.40;17.00;;;;;;;17.52;34.69;102292.48;1825752;78;21107;-60
2023/01/22 09:58:26;;;;;;;44.67;17.37;;;;;;;18.10;34.02;102292.58;1825692;78;21068;-60
2023/01/22 10:00:58;;;;;;;39.15;15.38;;;;;;;18.58;33.54;102282.34;1825675;78;21153;-60
2023/01/22 10:03:47;;;;;;;47.75;16.57;;;;;;;18.85;33.25;102284.16;1825662;78;21028;-59
2023/01/22 10:06:20;;;;;;;44.40;16.00;;;;;;;18.83;33.36;102277.16;1825515;78;21064;-60
2023/01/22 10:08:58;;;;;;;43.20;16.27;;;;;;;18.73;33.36;102280.73;1825831;78;21092;-60
2023/01/22 10:11:27;;;;;;;38.92;15.45;;;;;;;18.75;33.40;102278.84;1825310;78;21146;-60
2023/01/22 10:13:58;;;;;;;38.33;15.20;;;;;;;18.45;33.64;102276.73;1825681;78;21143;-59
2023/01/22 10:16:27;;;;;;;47.70;17.57;;;;;;;18.32;33.75;102271.59;1825779;78;21064;-60
2023/01/22 10:19:15;;;;;;;36.38;15.48;;;;;;;18.12;33.93;102277.37;1825639;78;21076;-60
2023/01/22 10:21:47;;;;;;;38.88;15.32;;;;;;;17.88;34.11;102271.85;1825789;78;21154;-60
2023/01/22 10:24:16;;;;;;;35.25;15.60;;;;;;;17.02;35.05;102276.88;1825730;78;21048;-59
2023/01/22 10:26:53;;;;;;;41.98;17.02;;;;;;;16.39;35.72;102277.13;1825615;78;21111;-60
2023/01/22 10:29:27;;;;;;;39.75;16.02;;;;;;;15.86;36.19;102276.07;1825532;78;21087;-60
2023/01/22 10:32:00;;;;;;;39.48;16.60;;;;;;;15.35;36.75;102275.17;1825706;78;21237;-60
2023/01/22 10:34:32;;;;;;;44.23;18.07;;;;;;;15.15;37.00;102273.66;1825670;78;21162;-59
2023/01/22 10:37:06;;;;;;;41.08;16.05;;;;;;;14.90;37.24;102265.17;1825712;78;21204;-59
2023/01/22 10:39:46;;;;;;;37.98;17.05;;;;;;;14.84;37.39;102268.90;1825693;78;21514;-60
2023/01/22 10:42:23;;;;;;;47.30;19.23;;;;;;;14.96;37.26;102268.12;1825653;78;21133;-59
2023/01/22 10:44:58;;;;;;;44.38;16.80;;;;;;;14.88;37.36;102268.34;1821910;78;21167;-59
2023/01/22 10:47:27;;;;;;;40.15;16.23;;;;;;;14.84;37.51;102266.72;1805655;79;21174;-59
2023/01/22 10:50:09;;;;;;;43.05;16.55;;;;;;;14.79;37.50;102267.31;1805703;79;21093;-59
2023/01/22 10:52:45;;;;;;;62.48;32.33;;;;;;;15.03;37.20;102266.97;1803869;78;21573;-59
2023/01/22 10:55:19;;;;;;;43.85;18.55;;;;;;;15.23;36.96;102260.98;1805674;79;21574;-59
2023/01/22 10:57:51;;;;;;;45.08;17.35;;;;;;;14.92;37.29;102258.06;1802006;79;21218;-59
2023/01/22 11:00:28;;;;;;;46.75;19.85;;;;;;;14.65;37.67;102258.50;1805573;79;21139;-59
2023/01/22 11:02:58;;;;;;;54.50;19.77;;;;;;;14.42;38.05;102259.17;1805042;79;21076;-60
2023/01/22 11:08:19;;;;;;;45.10;15.50;;;;;;;14.21;38.35;102258.91;1835086;77;21054;-60
2023/01/22 11:11:03;;;;;;;39.80;15.23;;;;;;;14.12;38.53;102253.89;1829707;78;21166;-59
2023/01/22 11:13:40;;;;;;;45.90;18.85;;;;;;;14.05;38.64;102257.20;1787140;80;21051;-60
2023/01/22 11:16:21;;;;;;;44.88;16.37;;;;;;;13.83;38.96;102259.60;1872930;76;21057;-59
2023/01/22 11:18:55;;;;;;;42.88;16.87;;;;;;;13.46;39.53;102263.70;1872832;76;21119;-59
2023/01/22 11:21:38;;;;;;;43.20;16.80;;;;;;;13.33;39.73;102267.12;1872835;76;21131;-59
2023/01/22 11:24:17;;;;;;;47.58;16.82;;;;;;;13.45;39.57;102266.80;1873169;76;21016;-59
2023/01/22 11:27:03;;;;;;;55.73;21.30;;;;;;;13.56;39.54;102266.52;1872341;76;21076;-60
2023/01/22 11:29:53;;;;;;;65.52;23.57;;;;;;;13.66;39.44;102269.77;1873076;76;21169;-62
2023/01/22 11:32:34;;;;;;;51.92;19.65;;;;;;;13.84;39.35;102271.91;1872882;76;21044;-61
2023/01/22 11:35:40;;;;;;;49.13;17.65;;;;;;;13.86;39.35;102268.76;1872897;76;21052;-60
2023/01/22 11:38:39;;;;;;;47.85;18.60;;;;;;;13.99;39.23;102269.73;1872909;76;21079;-60